sensor_id;sensor_type;location;lat;lon;timestamp;P1;durP1;ratioP1;P2;durP2;ratioP2
23531;SDS011;11943;52.270;20.978;2023-07-30T00:01:32;7.57;;;5.53;;
23531;SDS011;11943;52.270;20.978;2023-07-30T00:03:58;10.63;;;5.22;;
23531;SDS011;11943;52.270;20.978;2023-07-30T00:06:24;6.65;;;5.43;;
23531;SDS011;11943;52.270;20.978;2023-07-30T00:08:49;6.50;;;5.60;;
23531;SDS011;11943;52.270;20.978;2023-07-30T00:11:15;5.97;;;5.13;;
23531;SDS011;11943;52.270;20.978;2023-07-30T00:13:41;9.98;;;5.57;;
23531;SDS011;11943;52.270;20.978;2023-07-30T00:16:07;7.78;;;5.45;;
23531;SDS011;11943;52.270;20.978;2023-07-30T00:18:33;7.35;;;5.18;;
23531;SDS011;11943;52.270;20.978;2023-07-30T00:20:59;5.82;;;4.82;;
23531;SDS011;11943;52.270;20.978;2023-07-30T00:23:24;5.65;;;5.00;;
23531;SDS011;11943;52.270;20.978;2023-07-30T00:25:50;7.25;;;5.13;;
23531;SDS011;11943;52.270;20.978;2023-07-30T00:28:16;6.88;;;5.28;;
23531;SDS011;11943;52.270;20.978;2023-07-30T00:30:41;8.23;;;5.60;;
23531;SDS011;11943;52.270;20.978;2023-07-30T00:33:07;9.02;;;6.18;;
23531;SDS011;11943;52.270;20.978;2023-07-30T00:35:32;8.57;;;6.47;;
23531;SDS011;11943;52.270;20.978;2023-07-30T00:37:58;11.05;;;6.30;;
23531;SDS011;11943;52.270;20.978;2023-07-30T00:40:24;10.88;;;6.15;;
23531;SDS011;11943;52.270;20.978;2023-07-30T00:42:49;7.20;;;5.38;;
23531;SDS011;11943;52.270;20.978;2023-07-30T00:45:15;6.35;;;5.75;;
23531;SDS011;11943;52.270;20.978;2023-07-30T00:47:41;6.43;;;5.30;;
23531;SDS011;11943;52.270;20.978;2023-07-30T00:50:07;6.90;;;4.97;;
23531;SDS011;11943;52.270;20.978;2023-07-30T00:55:03;4.85;;;4.35;;
23531;SDS011;11943;52.270;20.978;2023-07-30T00:57:29;9.82;;;5.03;;
23531;SDS011;11943;52.270;20.978;2023-07-30T00:59:55;6.22;;;4.57;;
23531;SDS011;11943;52.270;20.978;2023-07-30T01:02:21;5.30;;;3.92;;
23531;SDS011;11943;52.270;20.978;2023-07-30T01:04:47;7.13;;;4.38;;
23531;SDS011;11943;52.270;20.978;2023-07-30T01:07:14;7.28;;;4.35;;
23531;SDS011;11943;52.270;20.978;2023-07-30T01:09:40;5.53;;;3.90;;
23531;SDS011;11943;52.270;20.978;2023-07-30T01:12:06;5.10;;;3.95;;
23531;SDS011;11943;52.270;20.978;2023-07-30T01:14:32;4.45;;;4.03;;
23531;SDS011;11943;52.270;20.978;2023-07-30T01:16:58;4.40;;;3.90;;
23531;SDS011;11943;52.270;20.978;2023-07-30T01:19:24;5.60;;;4.05;;
23531;SDS011;11943;52.270;20.978;2023-07-30T01:21:49;5.40;;;3.95;;
23531;SDS011;11943;52.270;20.978;2023-07-30T01:24:15;4.82;;;3.20;;
23531;SDS011;11943;52.270;20.978;2023-07-30T01:26:45;5.07;;;4.10;;
23531;SDS011;11943;52.270;20.978;2023-07-30T01:29:22;5.90;;;4.00;;
23531;SDS011;11943;52.270;20.978;2023-07-30T01:32:09;6.65;;;3.83;;
23531;SDS011;11943;52.270;20.978;2023-07-30T01:34:37;5.50;;;4.15;;
23531;SDS011;11943;52.270;20.978;2023-07-30T01:37:09;3.85;;;3.55;;
23531;SDS011;11943;52.270;20.978;2023-07-30T01:39:37;5.32;;;3.22;;
23531;SDS011;11943;52.270;20.978;2023-07-30T01:42:04;4.00;;;3.40;;
23531;SDS011;11943;52.270;20.978;2023-07-30T01:44:29;10.65;;;4.82;;
23531;SDS011;11943;52.270;20.978;2023-07-30T01:46:55;5.63;;;3.75;;
23531;SDS011;11943;52.270;20.978;2023-07-30T01:49:21;5.30;;;3.75;;
23531;SDS011;11943;52.270;20.978;2023-07-30T01:51:47;3.70;;;3.20;;
23531;SDS011;11943;52.270;20.978;2023-07-30T01:54:13;4.00;;;3.60;;
23531;SDS011;11943;52.270;20.978;2023-07-30T01:56:39;5.93;;;4.10;;
23531;SDS011;11943;52.270;20.978;2023-07-30T01:59:04;5.72;;;3.67;;
23531;SDS011;11943;52.270;20.978;2023-07-30T02:01:30;4.82;;;3.80;;
23531;SDS011;11943;52.270;20.978;2023-07-30T02:03:56;5.50;;;3.40;;
23531;SDS011;11943;52.270;20.978;2023-07-30T02:06:21;5.00;;;3.95;;
23531;SDS011;11943;52.270;20.978;2023-07-30T02:08:47;4.93;;;3.70;;
23531;SDS011;11943;52.270;20.978;2023-07-30T02:11:13;5.65;;;3.83;;
23531;SDS011;11943;52.270;20.978;2023-07-30T02:13:38;6.60;;;4.30;;
23531;SDS011;11943;52.270;20.978;2023-07-30T02:16:04;4.75;;;4.22;;
23531;SDS011;11943;52.270;20.978;2023-07-30T02:18:30;4.85;;;4.25;;
23531;SDS011;11943;52.270;20.978;2023-07-30T02:20:55;7.00;;;4.75;;
23531;SDS011;11943;52.270;20.978;2023-07-30T02:23:21;5.53;;;4.63;;
23531;SDS011;11943;52.270;20.978;2023-07-30T02:25:46;5.47;;;4.55;;
23531;SDS011;11943;52.270;20.978;2023-07-30T02:28:12;7.05;;;5.40;;
23531;SDS011;11943;52.270;20.978;2023-07-30T02:30:38;6.50;;;5.35;;
23531;SDS011;11943;52.270;20.978;2023-07-30T02:33:03;6.60;;;5.65;;
23531;SDS011;11943;52.270;20.978;2023-07-30T02:35:29;7.53;;;5.55;;
23531;SDS011;11943;52.270;20.978;2023-07-30T02:37:54;7.90;;;5.72;;
23531;SDS011;11943;52.270;20.978;2023-07-30T02:40:20;6.72;;;6.13;;
23531;SDS011;11943;52.270;20.978;2023-07-30T02:42:46;7.18;;;6.20;;
23531;SDS011;11943;52.270;20.978;2023-07-30T02:45:11;9.48;;;6.55;;
23531;SDS011;11943;52.270;20.978;2023-07-30T02:47:37;7.70;;;6.68;;
23531;SDS011;11943;52.270;20.978;2023-07-30T02:50:03;8.25;;;7.22;;
23531;SDS011;11943;52.270;20.978;2023-07-30T02:52:30;7.28;;;6.53;;
23531;SDS011;11943;52.270;20.978;2023-07-30T02:54:56;9.43;;;6.95;;
23531;SDS011;11943;52.270;20.978;2023-07-30T02:57:22;7.22;;;6.53;;
23531;SDS011;11943;52.270;20.978;2023-07-30T02:59:48;8.45;;;6.95;;
23531;SDS011;11943;52.270;20.978;2023-07-30T03:02:13;10.00;;;6.80;;
23531;SDS011;11943;52.270;20.978;2023-07-30T03:04:39;9.60;;;6.53;;
23531;SDS011;11943;52.270;20.978;2023-07-30T03:07:05;12.05;;;6.70;;
23531;SDS011;11943;52.270;20.978;2023-07-30T03:09:31;8.48;;;6.72;;
23531;SDS011;11943;52.270;20.978;2023-07-30T03:11:57;13.25;;;7.07;;
23531;SDS011;11943;52.270;20.978;2023-07-30T03:14:24;9.48;;;7.70;;
23531;SDS011;11943;52.270;20.978;2023-07-30T03:16:50;10.43;;;7.50;;
23531;SDS011;11943;52.270;20.978;2023-07-30T03:19:15;7.97;;;7.15;;
23531;SDS011;11943;52.270;20.978;2023-07-30T03:21:41;7.70;;;6.90;;
23531;SDS011;11943;52.270;20.978;2023-07-30T03:24:07;7.50;;;6.68;;
23531;SDS011;11943;52.270;20.978;2023-07-30T03:26:32;9.52;;;7.32;;
23531;SDS011;11943;52.270;20.978;2023-07-30T03:28:58;11.95;;;6.85;;
23531;SDS011;11943;52.270;20.978;2023-07-30T03:31:24;7.57;;;6.78;;
23531;SDS011;11943;52.270;20.978;2023-07-30T03:33:49;9.45;;;6.88;;
23531;SDS011;11943;52.270;20.978;2023-07-30T03:36:15;10.88;;;7.25;;
23531;SDS011;11943;52.270;20.978;2023-07-30T03:38:41;7.13;;;6.40;;
23531;SDS011;11943;52.270;20.978;2023-07-30T03:41:07;13.15;;;6.75;;
23531;SDS011;11943;52.270;20.978;2023-07-30T03:43:34;7.30;;;6.43;;
23531;SDS011;11943;52.270;20.978;2023-07-30T03:46:00;11.80;;;6.82;;
23531;SDS011;11943;52.270;20.978;2023-07-30T03:48:26;10.27;;;6.43;;
23531;SDS011;11943;52.270;20.978;2023-07-30T03:50:55;10.73;;;6.25;;
23531;SDS011;11943;52.270;20.978;2023-07-30T03:53:21;8.77;;;6.32;;
23531;SDS011;11943;52.270;20.978;2023-07-30T03:55:47;10.43;;;6.20;;
23531;SDS011;11943;52.270;20.978;2023-07-30T03:58:13;8.05;;;5.93;;
23531;SDS011;11943;52.270;20.978;2023-07-30T04:00:39;10.40;;;6.20;;
23531;SDS011;11943;52.270;20.978;2023-07-30T04:03:05;7.75;;;6.78;;
23531;SDS011;11943;52.270;20.978;2023-07-30T04:05:31;7.80;;;6.00;;
23531;SDS011;11943;52.270;20.978;2023-07-30T04:07:57;10.30;;;6.32;;
23531;SDS011;11943;52.270;20.978;2023-07-30T04:10:22;10.00;;;5.93;;
23531;SDS011;11943;52.270;20.978;2023-07-30T04:12:48;8.13;;;6.20;;
23531;SDS011;11943;52.270;20.978;2023-07-30T04:15:17;9.00;;;6.50;;
23531;SDS011;11943;52.270;20.978;2023-07-30T04:17:42;6.43;;;5.75;;
23531;SDS011;11943;52.270;20.978;2023-07-30T04:20:08;8.02;;;5.80;;
23531;SDS011;11943;52.270;20.978;2023-07-30T04:22:35;8.38;;;5.72;;
23531;SDS011;11943;52.270;20.978;2023-07-30T04:25:01;6.40;;;5.27;;
23531;SDS011;11943;52.270;20.978;2023-07-30T04:27:27;10.75;;;5.55;;
23531;SDS011;11943;52.270;20.978;2023-07-30T04:29:53;8.80;;;5.38;;
23531;SDS011;11943;52.270;20.978;2023-07-30T04:32:18;7.18;;;4.68;;
23531;SDS011;11943;52.270;20.978;2023-07-30T04:34:44;8.27;;;4.95;;
23531;SDS011;11943;52.270;20.978;2023-07-30T04:37:10;5.88;;;5.28;;
23531;SDS011;11943;52.270;20.978;2023-07-30T04:39:35;7.20;;;4.88;;
23531;SDS011;11943;52.270;20.978;2023-07-30T04:42:01;5.75;;;4.55;;
23531;SDS011;11943;52.270;20.978;2023-07-30T04:44:28;5.28;;;4.35;;
23531;SDS011;11943;52.270;20.978;2023-07-30T04:46:53;5.68;;;4.40;;
23531;SDS011;11943;52.270;20.978;2023-07-30T04:49:19;4.72;;;4.18;;
23531;SDS011;11943;52.270;20.978;2023-07-30T04:51:45;5.38;;;4.68;;
23531;SDS011;11943;52.270;20.978;2023-07-30T04:54:10;7.57;;;5.07;;
23531;SDS011;11943;52.270;20.978;2023-07-30T04:56:36;8.25;;;5.22;;
23531;SDS011;11943;52.270;20.978;2023-07-30T04:59:02;10.23;;;5.30;;
23531;SDS011;11943;52.270;20.978;2023-07-30T05:01:28;6.38;;;5.20;;
23531;SDS011;11943;52.270;20.978;2023-07-30T05:03:54;9.18;;;6.45;;
23531;SDS011;11943;52.270;20.978;2023-07-30T05:06:20;7.20;;;6.07;;
23531;SDS011;11943;52.270;20.978;2023-07-30T05:08:46;6.47;;;5.78;;
23531;SDS011;11943;52.270;20.978;2023-07-30T05:11:11;7.88;;;6.15;;
23531;SDS011;11943;52.270;20.978;2023-07-30T05:13:37;9.20;;;6.28;;
23531;SDS011;11943;52.270;20.978;2023-07-30T05:16:03;10.23;;;5.80;;
23531;SDS011;11943;52.270;20.978;2023-07-30T05:18:28;6.72;;;5.15;;
23531;SDS011;11943;52.270;20.978;2023-07-30T05:20:54;7.25;;;5.20;;
23531;SDS011;11943;52.270;20.978;2023-07-30T05:23:20;5.57;;;4.68;;
23531;SDS011;11943;52.270;20.978;2023-07-30T05:25:46;8.57;;;4.30;;
23531;SDS011;11943;52.270;20.978;2023-07-30T05:28:11;5.32;;;4.25;;
23531;SDS011;11943;52.270;20.978;2023-07-30T05:30:37;6.97;;;4.55;;
23531;SDS011;11943;52.270;20.978;2023-07-30T05:33:03;6.53;;;4.35;;
23531;SDS011;11943;52.270;20.978;2023-07-30T05:35:28;4.88;;;4.35;;
23531;SDS011;11943;52.270;20.978;2023-07-30T05:37:54;4.43;;;3.95;;
23531;SDS011;11943;52.270;20.978;2023-07-30T05:40:20;4.50;;;4.10;;
23531;SDS011;11943;52.270;20.978;2023-07-30T05:42:46;4.85;;;4.45;;
23531;SDS011;11943;52.270;20.978;2023-07-30T05:45:12;5.85;;;4.53;;
23531;SDS011;11943;52.270;20.978;2023-07-30T05:47:38;7.65;;;4.82;;
23531;SDS011;11943;52.270;20.978;2023-07-30T05:50:03;4.97;;;4.47;;
23531;SDS011;11943;52.270;20.978;2023-07-30T05:52:29;7.97;;;4.38;;
23531;SDS011;11943;52.270;20.978;2023-07-30T05:54:55;5.60;;;3.50;;
23531;SDS011;11943;52.270;20.978;2023-07-30T05:57:21;8.65;;;3.83;;
23531;SDS011;11943;52.270;20.978;2023-07-30T05:59:46;10.20;;;4.28;;
23531;SDS011;11943;52.270;20.978;2023-07-30T06:02:12;8.25;;;4.35;;
23531;SDS011;11943;52.270;20.978;2023-07-30T06:04:38;4.45;;;3.67;;
23531;SDS011;11943;52.270;20.978;2023-07-30T06:07:04;6.32;;;4.03;;
23531;SDS011;11943;52.270;20.978;2023-07-30T06:09:30;4.78;;;4.30;;
23531;SDS011;11943;52.270;20.978;2023-07-30T06:11:58;7.82;;;4.25;;
23531;SDS011;11943;52.270;20.978;2023-07-30T06:14:25;6.95;;;4.43;;
23531;SDS011;11943;52.270;20.978;2023-07-30T06:16:51;5.93;;;3.90;;
23531;SDS011;11943;52.270;20.978;2023-07-30T06:19:17;4.63;;;3.90;;
23531;SDS011;11943;52.270;20.978;2023-07-30T06:21:43;3.55;;;2.80;;
23531;SDS011;11943;52.270;20.978;2023-07-30T06:24:09;4.05;;;2.60;;
23531;SDS011;11943;52.270;20.978;2023-07-30T06:26:35;6.10;;;3.03;;
23531;SDS011;11943;52.270;20.978;2023-07-30T06:29:00;6.40;;;3.33;;
23531;SDS011;11943;52.270;20.978;2023-07-30T06:31:26;4.47;;;3.05;;
23531;SDS011;11943;52.270;20.978;2023-07-30T06:33:52;9.05;;;3.28;;
23531;SDS011;11943;52.270;20.978;2023-07-30T06:36:17;5.78;;;3.80;;
23531;SDS011;11943;52.270;20.978;2023-07-30T06:38:43;6.82;;;4.47;;
23531;SDS011;11943;52.270;20.978;2023-07-30T06:41:08;5.22;;;4.10;;
23531;SDS011;11943;52.270;20.978;2023-07-30T06:43:34;4.65;;;4.25;;
23531;SDS011;11943;52.270;20.978;2023-07-30T06:46:01;5.18;;;4.68;;
23531;SDS011;11943;52.270;20.978;2023-07-30T06:48:27;9.60;;;4.47;;
23531;SDS011;11943;52.270;20.978;2023-07-30T06:50:52;6.75;;;4.05;;
23531;SDS011;11943;52.270;20.978;2023-07-30T06:53:18;8.77;;;3.60;;
23531;SDS011;11943;52.270;20.978;2023-07-30T06:55:44;6.00;;;3.78;;
23531;SDS011;11943;52.270;20.978;2023-07-30T06:58:10;6.35;;;3.85;;
23531;SDS011;11943;52.270;20.978;2023-07-30T07:00:35;6.13;;;3.35;;
23531;SDS011;11943;52.270;20.978;2023-07-30T07:03:01;6.28;;;3.22;;
23531;SDS011;11943;52.270;20.978;2023-07-30T07:05:27;4.22;;;3.28;;
23531;SDS011;11943;52.270;20.978;2023-07-30T07:07:52;6.55;;;3.33;;
23531;SDS011;11943;52.270;20.978;2023-07-30T07:10:18;5.28;;;3.92;;
23531;SDS011;11943;52.270;20.978;2023-07-30T07:12:44;7.70;;;4.60;;
23531;SDS011;11943;52.270;20.978;2023-07-30T07:15:09;9.38;;;4.65;;
23531;SDS011;11943;52.270;20.978;2023-07-30T07:17:35;5.47;;;4.03;;
23531;SDS011;11943;52.270;20.978;2023-07-30T07:20:01;6.38;;;4.20;;
23531;SDS011;11943;52.270;20.978;2023-07-30T07:22:29;5.53;;;3.72;;
23531;SDS011;11943;52.270;20.978;2023-07-30T07:24:55;8.23;;;4.50;;
23531;SDS011;11943;52.270;20.978;2023-07-30T07:27:21;8.38;;;4.13;;
23531;SDS011;11943;52.270;20.978;2023-07-30T07:29:49;6.10;;;4.18;;
23531;SDS011;11943;52.270;20.978;2023-07-30T07:32:15;6.35;;;3.58;;
23531;SDS011;11943;52.270;20.978;2023-07-30T07:34:41;4.57;;;3.90;;
23531;SDS011;11943;52.270;20.978;2023-07-30T07:37:06;5.07;;;4.57;;
23531;SDS011;11943;52.270;20.978;2023-07-30T07:39:32;11.20;;;5.13;;
23531;SDS011;11943;52.270;20.978;2023-07-30T07:41:58;7.07;;;4.50;;
23531;SDS011;11943;52.270;20.978;2023-07-30T07:44:24;4.57;;;4.18;;
23531;SDS011;11943;52.270;20.978;2023-07-30T07:46:49;6.22;;;4.20;;
23531;SDS011;11943;52.270;20.978;2023-07-30T07:49:15;4.63;;;4.00;;
23531;SDS011;11943;52.270;20.978;2023-07-30T07:51:41;8.18;;;4.00;;
23531;SDS011;11943;52.270;20.978;2023-07-30T07:54:06;5.90;;;3.70;;
23531;SDS011;11943;52.270;20.978;2023-07-30T07:56:32;4.72;;;3.60;;
23531;SDS011;11943;52.270;20.978;2023-07-30T07:58:58;5.68;;;3.70;;
23531;SDS011;11943;52.270;20.978;2023-07-30T08:01:23;7.25;;;3.80;;
23531;SDS011;11943;52.270;20.978;2023-07-30T08:03:49;6.68;;;3.90;;
23531;SDS011;11943;52.270;20.978;2023-07-30T08:06:15;3.88;;;3.40;;
23531;SDS011;11943;52.270;20.978;2023-07-30T08:08:40;6.55;;;3.45;;
23531;SDS011;11943;52.270;20.978;2023-07-30T08:11:06;8.98;;;3.05;;
23531;SDS011;11943;52.270;20.978;2023-07-30T08:13:33;3.72;;;3.03;;
23531;SDS011;11943;52.270;20.978;2023-07-30T08:15:59;8.98;;;3.80;;
23531;SDS011;11943;52.270;20.978;2023-07-30T08:18:25;4.70;;;3.50;;
23531;SDS011;11943;52.270;20.978;2023-07-30T08:20:51;4.60;;;3.33;;
23531;SDS011;11943;52.270;20.978;2023-07-30T08:23:17;3.95;;;3.50;;
23531;SDS011;11943;52.270;20.978;2023-07-30T08:25:42;6.47;;;3.67;;
23531;SDS011;11943;52.270;20.978;2023-07-30T08:28:08;8.85;;;4.22;;
23531;SDS011;11943;52.270;20.978;2023-07-30T08:30:34;4.75;;;3.85;;
23531;SDS011;11943;52.270;20.978;2023-07-30T08:32:59;5.25;;;3.72;;
23531;SDS011;11943;52.270;20.978;2023-07-30T08:35:25;4.22;;;3.47;;
23531;SDS011;11943;52.270;20.978;2023-07-30T08:37:52;5.18;;;3.42;;
23531;SDS011;11943;52.270;20.978;2023-07-30T08:40:18;5.07;;;3.33;;
23531;SDS011;11943;52.270;20.978;2023-07-30T08:45:11;6.60;;;2.90;;
23531;SDS011;11943;52.270;20.978;2023-07-30T08:47:37;3.60;;;3.30;;
23531;SDS011;11943;52.270;20.978;2023-07-30T08:50:06;3.80;;;3.42;;
23531;SDS011;11943;52.270;20.978;2023-07-30T08:52:32;3.38;;;2.83;;
23531;SDS011;11943;52.270;20.978;2023-07-30T08:55:00;5.90;;;3.10;;
23531;SDS011;11943;52.270;20.978;2023-07-30T08:57:27;4.03;;;3.40;;
23531;SDS011;11943;52.270;20.978;2023-07-30T08:59:56;4.15;;;3.42;;
23531;SDS011;11943;52.270;20.978;2023-07-30T09:02:49;5.15;;;2.95;;
23531;SDS011;11943;52.270;20.978;2023-07-30T09:05:17;3.75;;;2.88;;
23531;SDS011;11943;52.270;20.978;2023-07-30T09:07:47;4.78;;;3.00;;
23531;SDS011;11943;52.270;20.978;2023-07-30T09:10:14;4.70;;;2.90;;
23531;SDS011;11943;52.270;20.978;2023-07-30T09:12:40;2.85;;;2.65;;
23531;SDS011;11943;52.270;20.978;2023-07-30T09:15:06;3.38;;;2.70;;
23531;SDS011;11943;52.270;20.978;2023-07-30T09:17:32;5.50;;;3.05;;
23531;SDS011;11943;52.270;20.978;2023-07-30T09:19:59;4.77;;;3.20;;
23531;SDS011;11943;52.270;20.978;2023-07-30T09:22:25;4.20;;;2.78;;
23531;SDS011;11943;52.270;20.978;2023-07-30T09:24:53;3.22;;;3.03;;
23531;SDS011;11943;52.270;20.978;2023-07-30T09:27:22;4.22;;;3.05;;
23531;SDS011;11943;52.270;20.978;2023-07-30T09:29:51;4.70;;;3.05;;
23531;SDS011;11943;52.270;20.978;2023-07-30T09:32:18;4.70;;;3.00;;
23531;SDS011;11943;52.270;20.978;2023-07-30T09:34:44;5.18;;;2.92;;
23531;SDS011;11943;52.270;20.978;2023-07-30T09:37:11;5.63;;;3.10;;
23531;SDS011;11943;52.270;20.978;2023-07-30T09:39:37;4.05;;;3.15;;
23531;SDS011;11943;52.270;20.978;2023-07-30T09:42:03;5.72;;;3.40;;
23531;SDS011;11943;52.270;20.978;2023-07-30T09:44:31;7.40;;;5.00;;
23531;SDS011;11943;52.270;20.978;2023-07-30T09:46:58;5.28;;;3.35;;
23531;SDS011;11943;52.270;20.978;2023-07-30T09:49:30;4.03;;;3.10;;
23531;SDS011;11943;52.270;20.978;2023-07-30T09:51:56;2.92;;;2.30;;
23531;SDS011;11943;52.270;20.978;2023-07-30T09:54:22;3.72;;;2.75;;
23531;SDS011;11943;52.270;20.978;2023-07-30T09:56:48;2.80;;;2.60;;
23531;SDS011;11943;52.270;20.978;2023-07-30T09:59:14;3.17;;;2.30;;
23531;SDS011;11943;52.270;20.978;2023-07-30T10:01:46;5.38;;;3.05;;
23531;SDS011;11943;52.270;20.978;2023-07-30T10:04:18;3.38;;;2.55;;
23531;SDS011;11943;52.270;20.978;2023-07-30T10:06:49;5.13;;;2.75;;
23531;SDS011;11943;52.270;20.978;2023-07-30T10:09:29;6.10;;;2.58;;
23531;SDS011;11943;52.270;20.978;2023-07-30T10:11:58;3.15;;;2.40;;
23531;SDS011;11943;52.270;20.978;2023-07-30T10:14:26;4.90;;;2.88;;
23531;SDS011;11943;52.270;20.978;2023-07-30T10:16:54;4.65;;;2.75;;
23531;SDS011;11943;52.270;20.978;2023-07-30T10:19:25;2.42;;;2.20;;
23531;SDS011;11943;52.270;20.978;2023-07-30T10:21:53;2.80;;;2.47;;
23531;SDS011;11943;52.270;20.978;2023-07-30T10:25:01;2.95;;;2.67;;
23531;SDS011;11943;52.270;20.978;2023-07-30T10:27:35;8.38;;;3.03;;
23531;SDS011;11943;52.270;20.978;2023-07-30T10:30:15;3.15;;;2.70;;
23531;SDS011;11943;52.270;20.978;2023-07-30T10:32:42;3.30;;;2.20;;
23531;SDS011;11943;52.270;20.978;2023-07-30T10:35:08;6.27;;;3.20;;
23531;SDS011;11943;52.270;20.978;2023-07-30T10:37:34;3.83;;;2.55;;
23531;SDS011;11943;52.270;20.978;2023-07-30T10:40:00;5.00;;;2.90;;
23531;SDS011;11943;52.270;20.978;2023-07-30T10:42:34;3.60;;;2.63;;
23531;SDS011;11943;52.270;20.978;2023-07-30T10:45:00;3.33;;;3.00;;
23531;SDS011;11943;52.270;20.978;2023-07-30T10:47:28;3.60;;;2.75;;
23531;SDS011;11943;52.270;20.978;2023-07-30T10:49:54;3.10;;;2.67;;
23531;SDS011;11943;52.270;20.978;2023-07-30T10:52:27;3.55;;;2.92;;
23531;SDS011;11943;52.270;20.978;2023-07-30T10:54:59;6.30;;;2.55;;
23531;SDS011;11943;52.270;20.978;2023-07-30T10:57:29;4.30;;;2.78;;
23531;SDS011;11943;52.270;20.978;2023-07-30T10:59:56;2.75;;;2.55;;
23531;SDS011;11943;52.270;20.978;2023-07-30T11:02:23;4.88;;;2.95;;
23531;SDS011;11943;52.270;20.978;2023-07-30T11:04:49;3.13;;;2.88;;
23531;SDS011;11943;52.270;20.978;2023-07-30T11:07:17;4.22;;;3.33;;
23531;SDS011;11943;52.270;20.978;2023-07-30T11:09:44;4.28;;;2.90;;
23531;SDS011;11943;52.270;20.978;2023-07-30T11:12:09;5.45;;;3.13;;
23531;SDS011;11943;52.270;20.978;2023-07-30T11:14:35;3.80;;;2.47;;
23531;SDS011;11943;52.270;20.978;2023-07-30T11:17:01;3.08;;;2.78;;
23531;SDS011;11943;52.270;20.978;2023-07-30T11:19:27;3.25;;;2.80;;
23531;SDS011;11943;52.270;20.978;2023-07-30T11:21:55;3.03;;;2.83;;
23531;SDS011;11943;52.270;20.978;2023-07-30T11:24:33;3.63;;;2.92;;
23531;SDS011;11943;52.270;20.978;2023-07-30T11:27:00;3.33;;;2.90;;
23531;SDS011;11943;52.270;20.978;2023-07-30T11:29:26;2.95;;;2.65;;
23531;SDS011;11943;52.270;20.978;2023-07-30T11:31:55;3.42;;;2.92;;
23531;SDS011;11943;52.270;20.978;2023-07-30T11:34:22;4.45;;;2.67;;
23531;SDS011;11943;52.270;20.978;2023-07-30T11:36:48;6.55;;;2.97;;
23531;SDS011;11943;52.270;20.978;2023-07-30T11:39:14;3.38;;;2.80;;
23531;SDS011;11943;52.270;20.978;2023-07-30T11:41:41;4.13;;;2.92;;
23531;SDS011;11943;52.270;20.978;2023-07-30T11:44:07;2.83;;;2.60;;
23531;SDS011;11943;52.270;20.978;2023-07-30T11:46:33;3.33;;;2.97;;
23531;SDS011;11943;52.270;20.978;2023-07-30T11:49:11;3.72;;;3.28;;
23531;SDS011;11943;52.270;20.978;2023-07-30T11:51:38;4.57;;;3.05;;
23531;SDS011;11943;52.270;20.978;2023-07-30T11:54:04;5.78;;;2.80;;
23531;SDS011;11943;52.270;20.978;2023-07-30T11:56:33;2.78;;;2.58;;
23531;SDS011;11943;52.270;20.978;2023-07-30T11:59:00;3.92;;;3.03;;
23531;SDS011;11943;52.270;20.978;2023-07-30T12:01:29;3.20;;;2.90;;
23531;SDS011;11943;52.270;20.978;2023-07-30T12:03:56;6.82;;;3.08;;
23531;SDS011;11943;52.270;20.978;2023-07-30T12:06:23;6.88;;;3.10;;
23531;SDS011;11943;52.270;20.978;2023-07-30T12:08:49;4.03;;;3.10;;
23531;SDS011;11943;52.270;20.978;2023-07-30T12:11:15;3.90;;;3.30;;
23531;SDS011;11943;52.270;20.978;2023-07-30T12:13:45;3.40;;;3.10;;
23531;SDS011;11943;52.270;20.978;2023-07-30T12:16:11;4.75;;;2.90;;
23531;SDS011;11943;52.270;20.978;2023-07-30T12:18:37;3.53;;;3.22;;
23531;SDS011;11943;52.270;20.978;2023-07-30T12:21:05;3.17;;;2.95;;
23531;SDS011;11943;52.270;20.978;2023-07-30T12:23:36;3.70;;;3.40;;
23531;SDS011;11943;52.270;20.978;2023-07-30T12:26:03;4.28;;;2.88;;
23531;SDS011;11943;52.270;20.978;2023-07-30T12:28:32;3.47;;;3.10;;
23531;SDS011;11943;52.270;20.978;2023-07-30T12:31:01;4.18;;;3.10;;
23531;SDS011;11943;52.270;20.978;2023-07-30T12:33:26;4.18;;;3.00;;
23531;SDS011;11943;52.270;20.978;2023-07-30T12:35:52;3.30;;;3.00;;
23531;SDS011;11943;52.270;20.978;2023-07-30T12:38:18;3.42;;;3.10;;
23531;SDS011;11943;52.270;20.978;2023-07-30T12:40:44;3.10;;;2.60;;
23531;SDS011;11943;52.270;20.978;2023-07-30T12:43:09;4.03;;;3.15;;
23531;SDS011;11943;52.270;20.978;2023-07-30T12:45:35;5.72;;;2.85;;
23531;SDS011;11943;52.270;20.978;2023-07-30T12:48:01;8.63;;;2.95;;
23531;SDS011;11943;52.270;20.978;2023-07-30T12:50:27;2.88;;;2.67;;
23531;SDS011;11943;52.270;20.978;2023-07-30T12:52:52;4.00;;;2.60;;
23531;SDS011;11943;52.270;20.978;2023-07-30T12:55:18;3.00;;;2.70;;
23531;SDS011;11943;52.270;20.978;2023-07-30T12:57:45;4.75;;;2.95;;
23531;SDS011;11943;52.270;20.978;2023-07-30T13:00:11;2.60;;;2.20;;
23531;SDS011;11943;52.270;20.978;2023-07-30T13:02:37;2.63;;;2.42;;
23531;SDS011;11943;52.270;20.978;2023-07-30T13:05:02;2.75;;;2.50;;
23531;SDS011;11943;52.270;20.978;2023-07-30T13:07:29;2.83;;;2.53;;
23531;SDS011;11943;52.270;20.978;2023-07-30T13:10:07;4.97;;;2.47;;
23531;SDS011;11943;52.270;20.978;2023-07-30T13:12:34;4.07;;;2.90;;
23531;SDS011;11943;52.270;20.978;2023-07-30T13:15:01;2.58;;;2.33;;
23531;SDS011;11943;52.270;20.978;2023-07-30T13:17:26;5.03;;;2.53;;
23531;SDS011;11943;52.270;20.978;2023-07-30T13:19:52;5.15;;;2.40;;
23531;SDS011;11943;52.270;20.978;2023-07-30T13:22:18;4.05;;;2.92;;
23531;SDS011;11943;52.270;20.978;2023-07-30T13:24:44;2.53;;;2.33;;
23531;SDS011;11943;52.270;20.978;2023-07-30T13:27:09;2.45;;;2.25;;
23531;SDS011;11943;52.270;20.978;2023-07-30T13:29:35;9.57;;;2.70;;
23531;SDS011;11943;52.270;20.978;2023-07-30T13:32:01;3.13;;;2.60;;
23531;SDS011;11943;52.270;20.978;2023-07-30T13:34:27;2.72;;;2.53;;
23531;SDS011;11943;52.270;20.978;2023-07-30T13:36:52;8.35;;;2.88;;
23531;SDS011;11943;52.270;20.978;2023-07-30T13:39:18;4.50;;;2.50;;
23531;SDS011;11943;52.270;20.978;2023-07-30T13:41:44;5.32;;;2.78;;
23531;SDS011;11943;52.270;20.978;2023-07-30T13:44:10;3.58;;;2.75;;
23531;SDS011;11943;52.270;20.978;2023-07-30T13:46:36;5.30;;;2.50;;
23531;SDS011;11943;52.270;20.978;2023-07-30T13:49:02;3.03;;;2.80;;
23531;SDS011;11943;52.270;20.978;2023-07-30T13:51:29;3.05;;;2.58;;
23531;SDS011;11943;52.270;20.978;2023-07-30T13:53:58;2.53;;;2.33;;
23531;SDS011;11943;52.270;20.978;2023-07-30T13:56:24;4.70;;;2.80;;
23531;SDS011;11943;52.270;20.978;2023-07-30T13:58:50;6.50;;;3.03;;
23531;SDS011;11943;52.270;20.978;2023-07-30T14:01:16;10.48;;;2.92;;
23531;SDS011;11943;52.270;20.978;2023-07-30T14:03:42;5.43;;;2.70;;
23531;SDS011;11943;52.270;20.978;2023-07-30T14:06:08;3.53;;;3.10;;
23531;SDS011;11943;52.270;20.978;2023-07-30T14:08:34;3.42;;;2.80;;
23531;SDS011;11943;52.270;20.978;2023-07-30T14:11:00;6.57;;;2.97;;
23531;SDS011;11943;52.270;20.978;2023-07-30T14:13:26;4.28;;;3.40;;
23531;SDS011;11943;52.270;20.978;2023-07-30T14:15:51;5.93;;;3.28;;
23531;SDS011;11943;52.270;20.978;2023-07-30T14:18:17;3.40;;;3.10;;
23531;SDS011;11943;52.270;20.978;2023-07-30T14:20:43;7.10;;;3.00;;
23531;SDS011;11943;52.270;20.978;2023-07-30T14:23:09;6.80;;;3.60;;
23531;SDS011;11943;52.270;20.978;2023-07-30T14:25:35;4.40;;;3.63;;
23531;SDS011;11943;52.270;20.978;2023-07-30T14:28:01;3.30;;;3.00;;
23531;SDS011;11943;52.270;20.978;2023-07-30T14:30:27;3.55;;;3.00;;
23531;SDS011;11943;52.270;20.978;2023-07-30T14:32:52;7.20;;;3.00;;
23531;SDS011;11943;52.270;20.978;2023-07-30T14:35:18;3.58;;;3.20;;